Time;durP1;ratioP1;P1;durP2;ratioP2;P2;SDS_P1;SDS_P2;PMS_P1;PMS_P2;Temp;Humidity;BMP_temperature;BMP_pressure;BME280_temperature;BME280_humidity;BME280_pressure;Samples;Min_cycle;Max_cycle;Signal;HPM_P1;HPM_P2
2022/12/14 00:01:52;;;;;;;28.07;16.27;;;;;;;-0.65;86.66;100064.24;1751480;81;21771;-59
2022/12/14 00:04:59;;;;;;;31.15;16.23;;;;;;;-0.61;86.64;100070.26;1734422;82;21340;-60
2022/12/14 00:08:07;;;;;;;25.48;15.25;;;;;;;-0.59;86.64;100079.08;1734606;82;21198;-59
2022/12/14 00:11:22;;;;;;;21.62;13.53;;;;;;;-0.57;86.58;100086.55;1751275;81;21371;-61
2022/12/14 00:14:29;;;;;;;23.87;13.05;;;;;;;-0.56;86.54;100090.94;1736336;81;21348;-59
2022/12/14 00:17:39;;;;;;;25.50;13.20;;;;;;;-0.55;86.54;100093.98;1751138;81;21390;-61
2022/12/14 00:20:49;;;;;;;18.23;11.80;;;;;;;-0.52;86.53;100099.13;1736369;81;21317;-60
2022/12/14 00:24:01;;;;;;;20.02;11.68;;;;;;;-0.48;86.57;100112.73;1751638;81;21226;-59
2022/12/14 00:27:09;;;;;;;17.10;10.48;;;;;;;-0.47;86.57;100105.91;1751570;81;21178;-59
2022/12/14 00:30:18;;;;;;;19.82;11.28;;;;;;;-0.43;86.57;100105.20;1751341;81;21265;-60
2022/12/14 00:33:26;;;;;;;16.42;9.90;;;;;;;-0.40;86.57;100115.72;1736344;81;21545;-60
2022/12/14 00:36:36;;;;;;;13.20;9.05;;;;;;;-0.37;86.52;100136.52;1751797;79;21348;-59
2022/12/14 00:39:44;;;;;;;16.15;9.10;;;;;;;-0.34;86.53;100142.14;1751119;82;21336;-60
2022/12/14 00:42:52;;;;;;;15.23;8.53;;;;;;;-0.33;86.51;100149.23;1732230;82;21178;-61
2022/12/14 00:46:01;;;;;;;11.30;7.62;;;;;;;-0.35;86.41;100148.51;1751654;81;21194;-60
2022/12/14 00:49:08;;;;;;;13.13;7.45;;;;;;;-0.33;86.41;100153.27;1751764;81;21842;-60
2022/12/14 00:52:17;;;;;;;11.73;7.50;;;;;;;-0.35;86.34;100156.06;1751228;81;21213;-60
2022/12/14 00:55:24;;;;;;;12.15;7.75;;;;;;;-0.36;86.27;100158.87;1751383;81;21194;-60
2022/12/14 00:58:31;;;;;;;13.15;7.00;;;;;;;-0.35;86.30;100176.73;1751305;81;21273;-60
2022/12/14 01:01:43;;;;;;;10.38;6.55;;;;;;;-0.32;86.33;100192.64;1751557;82;21257;-61
2022/12/14 01:04:51;;;;;;;10.30;6.65;;;;;;;-0.31;86.29;100186.28;1714243;82;21226;-60
2022/12/14 01:07:59;;;;;;;10.03;6.62;;;;;;;-0.30;86.29;100200.09;1751221;81;21276;-61
2022/12/14 01:11:12;;;;;;;14.35;6.95;;;;;;;-0.30;86.23;100211.72;1751829;81;21249;-58
2022/12/14 01:14:24;;;;;;;11.50;7.20;;;;;;;-0.32;86.18;100200.71;1737028;81;21344;-61
2022/12/14 01:17:33;;;;;;;9.85;5.90;;;;;;;-0.34;86.07;100208.02;1751398;82;21328;-61
2022/12/14 01:20:44;;;;;;;9.95;5.53;;;;;;;-0.36;86.04;100218.89;1734522;81;21193;-61
2022/12/14 01:24:01;;;;;;;10.10;5.70;;;;;;;-0.38;86.00;100228.89;1752166;81;21380;-60
2022/12/14 01:27:10;;;;;;;8.53;5.72;;;;;;;-0.42;85.93;100225.20;1751155;81;21332;-60
2022/12/14 01:30:21;;;;;;;9.93;5.85;;;;;;;-0.46;85.89;100241.19;1751577;81;21194;-60
2022/12/14 01:33:29;;;;;;;8.78;6.15;;;;;;;-0.56;85.76;100234.74;1751552;81;21321;-60
2022/12/14 01:36:38;;;;;;;8.00;5.62;;;;;;;-0.71;85.67;100239.84;1751236;81;21320;-61
2022/12/14 01:39:44;;;;;;;7.78;5.62;;;;;;;-0.90;85.52;100242.98;1735062;82;21749;-60
2022/12/14 01:42:52;;;;;;;8.78;5.40;;;;;;;-1.09;85.45;100257.78;1734991;82;21832;-59
2022/12/14 01:46:02;;;;;;;10.28;6.20;;;;;;;-1.27;85.38;100265.30;1735843;82;21940;-59
2022/12/14 01:49:15;;;;;;;9.98;6.17;;;;;;;-1.44;85.29;100279.48;1735368;82;21754;-59
2022/12/14 01:52:29;;;;;;;8.50;6.08;;;;;;;-1.62;85.20;100285.09;1714788;82;21378;-60
2022/12/14 01:55:43;;;;;;;10.53;6.28;;;;;;;-1.81;85.12;100295.31;1736314;82;21723;-58
2022/12/14 01:58:56;;;;;;;8.53;5.80;;;;;;;-1.97;85.08;100302.67;1721034;82;21233;-60
2022/12/14 02:02:07;;;;;;;8.98;5.83;;;;;;;-2.08;85.09;100305.65;1714375;83;21706;-58
2022/12/14 02:05:14;;;;;;;10.95;5.60;;;;;;;-2.19;85.13;100300.95;1719451;82;21758;-59
2022/12/14 02:08:23;;;;;;;10.00;6.20;;;;;;;-2.29;85.14;100309.22;1700315;83;21266;-59
2022/12/14 02:11:50;;;;;;;11.57;6.65;;;;;;;-2.36;85.14;100305.70;1735717;82;21399;-58
2022/12/14 02:14:56;;;;;;;12.55;6.55;;;;;;;-2.46;85.11;100312.58;1735079;82;21305;-60
2022/12/14 02:18:09;;;;;;;11.18;6.80;;;;;;;-2.56;85.09;100326.16;1676461;82;21237;-59
2022/12/14 02:21:53;;;;;;;9.58;6.67;;;;;;;-2.63;85.11;100331.53;1708266;82;21260;-58
2022/12/14 02:25:41;;;;;;;12.70;7.47;;;;;;;-2.75;85.11;100333.13;1736007;82;21348;-59
2022/12/14 02:29:00;;;;;;;12.20;7.05;;;;;;;-2.83;85.08;100342.58;1736137;82;21213;-58
2022/12/14 02:33:02;;;;;;;14.25;7.87;;;;;;;-2.91;85.11;100363.13;1704461;82;21243;-59
2022/12/14 02:36:20;;;;;;;11.05;7.40;;;;;;;-2.99;85.10;100373.44;1735902;82;21220;-59
2022/12/14 02:40:01;;;;;;;12.28;7.87;;;;;;;-3.08;85.14;100372.66;1758165;79;21240;-58
2022/12/14 02:43:27;;;;;;;12.65;7.60;;;;;;;-3.13;85.17;100381.42;1746077;80;21359;-59
2022/12/14 02:46:48;;;;;;;15.72;8.13;;;;;;;-3.22;85.16;100381.48;1752060;81;21338;-60
2022/12/14 02:50:19;;;;;;;12.95;7.72;;;;;;;-3.27;85.19;100397.44;1745384;81;21201;-60
2022/12/14 02:53:39;;;;;;;12.15;8.03;;;;;;;-3.31;85.24;100411.92;1771224;80;21888;-59
2022/12/14 02:56:53;;;;;;;13.68;8.03;;;;;;;-3.38;85.20;100411.41;1770463;81;21209;-60
2022/12/14 03:00:04;;;;;;;16.57;9.08;;;;;;;-3.45;85.21;100418.55;1770447;80;21228;-60
2022/12/14 03:03:14;;;;;;;16.37;9.58;;;;;;;-3.48;85.23;100417.39;1770531;80;21884;-59
2022/12/14 03:06:26;;;;;;;15.88;9.45;;;;;;;-3.50;85.24;100428.64;1770581;81;21188;-59
2022/12/14 03:09:35;;;;;;;15.98;9.10;;;;;;;-3.56;85.24;100423.18;1752283;80;21363;-60
2022/12/14 03:12:44;;;;;;;18.65;10.00;;;;;;;-3.59;85.26;100439.41;1770517;81;21692;-60
2022/12/14 03:15:46;;;;;;;18.57;10.08;;;;;;;-3.62;85.30;100446.73;1750479;80;21245;-61
2022/12/14 03:19:03;;;;;;;17.82;9.43;;;;;;;-3.64;85.31;100448.62;1770771;80;21343;-59
2022/12/14 03:22:21;;;;;;;17.35;9.45;;;;;;;-3.65;85.37;100463.83;1753643;80;21216;-60
2022/12/14 03:25:36;;;;;;;14.47;8.78;;;;;;;-3.67;85.39;100467.05;1770589;81;21528;-60
2022/12/14 03:29:03;;;;;;;13.40;8.23;;;;;;;-3.68;85.43;100475.16;1770643;80;21192;-60
2022/12/14 03:32:17;;;;;;;17.50;10.55;;;;;;;-3.69;85.49;100477.42;1770495;81;21359;-59
2022/12/14 03:35:41;;;;;;;19.70;9.83;;;;;;;-3.73;85.44;100489.25;1770841;81;21260;-60
2022/12/14 03:38:57;;;;;;;14.87;8.80;;;;;;;-3.74;85.50;100495.56;1753026;79;21208;-60
2022/12/14 03:42:31;;;;;;;17.35;9.10;;;;;;;-3.74;85.56;100502.24;1732349;82;21257;-60
2022/12/14 03:46:01;;;;;;;16.95;9.25;;;;;;;-3.77;85.56;100496.56;1715757;82;21278;-60
2022/12/14 03:49:40;;;;;;;25.30;14.73;;;;;;;-3.78;85.47;100515.37;1719803;82;21278;-60
2022/12/14 03:53:21;;;;;;;27.93;14.40;;;;;;;-3.82;85.46;100521.84;1726341;82;21341;-59
2022/12/14 03:56:53;;;;;;;19.70;11.00;;;;;;;-3.84;85.43;100534.42;1726211;82;21788;-59
2022/12/14 04:00:19;;;;;;;17.85;10.08;;;;;;;-3.86;85.34;100535.84;1727000;82;21360;-60
2022/12/14 04:03:59;;;;;;;16.00;9.15;;;;;;;-3.89;85.34;100540.02;1726350;82;21628;-60
2022/12/14 04:07:25;;;;;;;21.48;11.78;;;;;;;-3.90;85.33;100545.45;1725658;82;21239;-59
2022/12/14 04:21:48;;;;;;;20.60;10.53;;;;;;;-3.99;85.30;100557.48;1725271;82;21692;-58
2022/12/14 04:32:37;;;;;;;15.50;9.60;;;;;;;-4.16;85.12;100574.00;1725891;82;21819;-59
2022/12/14 04:35:49;;;;;;;25.62;13.65;;;;;;;-4.22;85.06;100578.33;1726288;83;21216;-58
2022/12/14 04:39:14;;;;;;;26.65;13.13;;;;;;;-4.27;85.03;100575.03;1711154;82;21902;-60
2022/12/14 04:42:29;;;;;;;24.63;11.90;;;;;;;-4.32;84.94;100581.07;1750609;81;21789;-59
2022/12/14 04:45:49;;;;;;;21.57;12.35;;;;;;;-4.39;84.93;100588.53;1733050;82;21233;-60
2022/12/14 04:49:34;;;;;;;20.17;11.35;;;;;;;-4.42;84.95;100584.67;1750965;81;21285;-58
2022/12/14 04:53:14;;;;;;;19.98;11.38;;;;;;;-4.44;84.93;100593.27;1750727;82;21205;-58
2022/12/14 04:56:59;;;;;;;17.82;10.78;;;;;;;-4.49;84.89;100593.09;1663036;84;21473;-58
2022/12/14 05:00:26;;;;;;;20.68;11.45;;;;;;;-4.53;84.86;100594.20;1717863;83;21718;-59
2022/12/14 05:04:06;;;;;;;17.62;10.32;;;;;;;-4.54;84.93;100596.45;1691864;83;21221;-58
2022/12/14 05:07:24;;;;;;;18.80;10.03;;;;;;;-4.56;84.94;100600.53;1689654;83;21494;-59
2022/12/14 05:10:45;;;;;;;17.55;10.53;;;;;;;-4.60;84.86;100609.16;1686248;82;21276;-58
2022/12/14 05:13:56;;;;;;;17.40;10.32;;;;;;;-4.67;84.79;100610.42;1686150;83;21291;-58
2022/12/14 05:17:05;;;;;;;19.30;12.03;;;;;;;-4.72;84.73;100613.78;1676097;83;21228;-58
2022/12/14 05:20:13;;;;;;;16.95;10.65;;;;;;;-4.80;84.66;100621.30;1689825;83;21221;-58
2022/12/14 05:23:22;;;;;;;18.80;10.53;;;;;;;-4.85;84.62;100627.31;1675284;83;21575;-59
2022/12/14 05:26:38;;;;;;;16.10;9.95;;;;;;;-4.89;84.62;100636.43;1686053;83;21721;-59
2022/12/14 05:29:47;;;;;;;18.77;10.90;;;;;;;-4.92;84.59;100645.05;1710959;81;21771;-59
2022/12/14 05:32:57;;;;;;;17.62;10.18;;;;;;;-4.97;84.56;100657.27;1694193;83;21334;-58
2022/12/14 05:36:08;;;;;;;17.50;10.00;;;;;;;-5.00;84.56;100664.09;1654226;86;21300;-58
2022/12/14 05:39:24;;;;;;;21.57;12.50;;;;;;;-5.03;84.47;100668.70;1648146;85;21315;-60
2022/12/14 05:42:36;;;;;;;20.15;11.95;;;;;;;-5.04;84.47;100669.62;1679139;84;21333;-59
2022/12/14 05:45:46;;;;;;;18.12;11.03;;;;;;;-5.03;84.45;100676.25;1691956;83;21223;-59
2022/12/14 05:49:10;;;;;;;17.92;10.48;;;;;;;-5.01;84.49;100685.52;1682081;83;21749;-59
2022/12/14 05:52:23;;;;;;;20.17;11.50;;;;;;;-4.97;84.51;100693.77;1684622;82;21749;-59
2022/12/14 05:56:04;;;;;;;25.68;15.63;;;;;;;-4.93;84.55;100700.22;1682402;83;21314;-58
2022/12/14 05:59:22;;;;;;;16.95;11.10;;;;;;;-4.82;84.62;100698.41;1709365;82;21632;-59
2022/12/14 06:02:30;;;;;;;19.20;11.55;;;;;;;-4.67;84.68;100710.55;1688746;82;21227;-59
2022/12/14 06:05:36;;;;;;;18.10;11.35;;;;;;;-4.52;84.65;100708.09;1709977;81;21234;-60
2022/12/14 06:08:55;;;;;;;21.65;12.73;;;;;;;-4.42;84.54;100720.07;1645815;84;21254;-60
2022/12/14 06:12:53;;;;;;;21.80;12.82;;;;;;;-4.33;84.51;100723.62;1654018;84;21242;-60
2022/12/14 06:16:18;;;;;;;22.15;12.13;;;;;;;-4.15;84.60;100734.73;1682932;83;21199;-60
2022/12/14 06:19:48;;;;;;;18.15;11.50;;;;;;;-3.93;84.77;100736.77;1678931;84;21304;-58
2022/12/14 06:23:05;;;;;;;21.52;11.88;;;;;;;-3.72;84.84;100725.84;1693717;83;22073;-61
2022/12/14 06:26:25;;;;;;;21.17;12.33;;;;;;;-3.50;84.91;100736.30;1651369;85;21251;-59
2022/12/14 06:33:16;;;;;;;19.48;11.25;;;;;;;-3.10;84.93;100746.66;1849682;76;22912;-59
2022/12/14 06:36:27;;;;;;;20.10;12.05;;;;;;;-3.02;84.97;100759.63;1770384;79;21202;-60
2022/12/14 06:39:56;;;;;;;24.65;12.60;;;;;;;-2.89;84.98;100760.70;1746550;81;21229;-58
2022/12/14 06:43:12;;;;;;;23.95;13.75;;;;;;;-2.74;84.98;100771.95;1778957;78;21858;-58
2022/12/14 06:46:32;;;;;;;26.17;14.15;;;;;;;-2.60;84.97;100778.26;1760862;79;21225;-60
2022/12/14 06:49:42;;;;;;;23.30;13.83;;;;;;;-2.46;84.97;100786.44;1732865;78;21279;-59
2022/12/14 06:53:01;;;;;;;27.85;16.07;;;;;;;-2.28;85.02;100789.42;1707269;83;22103;-59
2022/12/14 06:56:23;;;;;;;33.23;17.42;;;;;;;-2.10;84.97;100788.41;1679333;83;21265;-60
2022/12/14 06:59:42;;;;;;;38.08;20.88;;;;;;;-1.95;84.82;100800.09;1707366;82;21216;-58
2022/12/14 07:02:57;;;;;;;62.33;27.87;;;;;;;-1.80;84.72;100805.44;1697573;82;21244;-60
2022/12/14 07:06:29;;;;;;;45.40;24.87;;;;;;;-1.67;84.49;100808.27;1689137;84;21673;-59
2022/12/14 07:09:44;;;;;;;29.87;18.70;;;;;;;-1.58;84.31;100819.80;1714163;82;21263;-58
2022/12/14 07:12:57;;;;;;;34.03;20.02;;;;;;;-1.45;84.13;100821.30;1707930;82;21195;-59
2022/12/14 07:16:25;;;;;;;27.52;16.95;;;;;;;-1.36;84.00;100824.31;1734648;82;21482;-59
2022/12/14 07:19:40;;;;;;;28.70;17.80;;;;;;;-1.29;83.84;100832.88;1689799;82;21366;-59
2022/12/14 07:22:59;;;;;;;30.80;17.00;;;;;;;-1.21;83.67;100836.84;1683360;85;21434;-60
2022/12/14 07:26:13;;;;;;;;;;;;;;;-1.12;83.51;100844.81;1675832;83;21716;-60
2022/12/14 07:29:40;;;;;;;31.45;19.10;;;;;;;-1.07;83.42;100852.12;1670952;85;20935;-59
2022/12/14 07:33:02;;;;;;;31.07;20.27;;;;;;;-0.95;83.44;100852.76;1687616;82;21312;-58
2022/12/14 07:39:47;;;;;;;38.83;20.08;;;;;;;-0.69;83.39;100864.13;1713276;82;21223;-59
2022/12/14 07:43:01;;;;;;;45.07;24.33;;;;;;;-0.59;83.32;100863.95;1698129;82;22209;-61
2022/12/14 07:46:37;;;;;;;39.80;25.32;;;;;;;-0.48;83.28;100873.58;1738229;81;21697;-59
2022/12/14 07:49:47;;;;;;;28.52;17.52;;;;;;;-0.33;83.31;100876.64;1684208;82;21185;-59
2022/12/14 07:53:20;;;;;;;37.60;20.43;;;;;;;-0.19;83.19;100883.40;1715972;82;21397;-59
2022/12/14 07:56:34;;;;;;;27.32;17.77;;;;;;;-0.09;83.09;100887.22;1626003;86;21550;-59
2022/12/14 07:59:49;;;;;;;37.63;19.85;;;;;;;0.02;83.09;100890.09;1642480;85;21237;-59
2022/12/14 08:03:04;;;;;;;34.95;22.37;;;;;;;0.07;83.00;100889.33;1629089;86;21325;-58
2022/12/14 08:06:31;;;;;;;26.73;17.60;;;;;;;0.17;83.07;100890.95;1634593;85;21234;-59
2022/12/14 08:10:06;;;;;;;28.10;17.42;;;;;;;0.27;83.03;100898.33;1636292;86;21893;-59
2022/12/14 08:13:13;;;;;;;36.55;18.90;;;;;;;0.45;83.17;100894.47;1632208;86;21237;-61
2022/12/14 08:16:54;;;;;;;39.08;21.12;;;;;;;0.60;83.02;100900.22;1629311;86;21686;-59
2022/12/14 08:20:14;;;;;;;43.52;21.65;;;;;;;0.55;82.72;100910.42;1617612;87;21281;-60
2022/12/14 08:23:28;;;;;;;38.33;21.73;;;;;;;0.49;82.71;100908.09;1610031;87;21332;-59
2022/12/14 08:26:54;;;;;;;32.30;20.15;;;;;;;0.39;82.64;100916.41;1601157;87;21210;-58
2022/12/14 08:30:15;;;;;;;36.42;20.48;;;;;;;0.44;82.74;100913.41;1824744;76;22651;-59
2022/12/14 08:33:35;;;;;;;37.93;19.40;;;;;;;0.39;82.77;100926.30;1747595;79;21176;-59
2022/12/14 08:36:52;;;;;;;31.65;18.70;;;;;;;0.43;82.83;100925.16;1761267;79;21610;-59
2022/12/14 08:40:04;;;;;;;32.83;19.52;;;;;;;0.50;82.75;100930.05;1783958;79;21244;-59
2022/12/14 08:43:23;;;;;;;33.05;19.57;;;;;;;0.56;82.59;100932.81;1780628;79;21232;-60
2022/12/14 08:46:47;;;;;;;28.92;17.77;;;;;;;0.62;82.59;100930.59;1770671;79;21237;-60
2022/12/14 08:50:02;;;;;;;30.40;18.52;;;;;;;0.75;82.62;100927.95;1758674;79;21408;-59
2022/12/14 08:53:14;;;;;;;28.55;17.12;;;;;;;0.92;82.59;100929.08;1774971;79;21443;-59
2022/12/14 08:56:26;;;;;;;31.40;17.57;;;;;;;0.99;82.51;100931.73;1785235;79;21188;-59
2022/12/14 08:59:37;;;;;;;32.40;19.02;;;;;;;0.99;82.37;100939.34;1786490;79;21507;-59
2022/12/14 09:03:10;;;;;;;30.70;18.67;;;;;;;0.98;82.34;100934.89;1800514;79;21666;-59
2022/12/14 09:06:30;;;;;;;30.82;19.27;;;;;;;0.90;82.26;100937.73;1803112;79;21823;-59
2022/12/14 09:09:43;;;;;;;30.23;18.62;;;;;;;0.83;82.20;100937.75;1730855;82;21687;-59
2022/12/14 09:12:55;;;;;;;28.70;18.77;;;;;;;0.77;82.13;100934.98;1697436;83;21512;-58
2022/12/14 09:16:17;;;;;;;32.23;18.12;;;;;;;0.74;82.15;100951.83;1772780;80;21367;-59
2022/12/14 09:19:40;;;;;;;29.07;18.45;;;;;;;0.72;82.19;100957.31;1735190;82;21944;-59
2022/12/14 09:22:59;;;;;;;30.45;17.82;;;;;;;0.59;82.08;100959.06;1758307;79;21263;-58
2022/12/14 09:26:20;;;;;;;33.02;18.95;;;;;;;0.46;82.06;100962.16;1776740;79;21820;-60
2022/12/14 09:29:41;;;;;;;28.98;19.15;;;;;;;0.37;82.17;100971.30;1761699;81;21247;-58
2022/12/14 09:32:58;;;;;;;28.27;18.00;;;;;;;0.33;82.26;100981.90;1798161;79;21403;-60
2022/12/14 09:36:17;;;;;;;41.45;23.38;;;;;;;0.35;82.38;100978.13;1747652;81;21233;-60
2022/12/14 09:39:39;;;;;;;30.95;18.10;;;;;;;0.40;82.46;100984.09;1690483;83;21217;-59
2022/12/14 09:43:08;;;;;;;28.50;17.80;;;;;;;0.39;82.44;100982.84;1684908;85;22224;-58
2022/12/14 09:46:46;;;;;;;28.35;18.40;;;;;;;0.40;82.40;100985.95;1665706;85;21840;-60
2022/12/14 09:50:22;;;;;;;31.70;18.98;;;;;;;0.35;82.38;100994.29;1648924;85;21313;-58
2022/12/14 09:53:36;;;;;;;29.07;18.05;;;;;;;0.33;82.50;100988.16;1658771;85;21979;-59
2022/12/14 09:56:51;;;;;;;33.18;19.45;;;;;;;0.37;82.46;100997.76;1669082;84;21843;-60
2022/12/14 10:00:12;;;;;;;34.58;21.07;;;;;;;0.38;82.48;100995.94;1666808;86;21331;-59
2022/12/14 10:03:31;;;;;;;31.12;19.02;;;;;;;0.44;82.53;100996.42;1712609;83;21248;-59
2022/12/14 10:07:15;;;;;;;29.85;18.73;;;;;;;0.44;82.46;101003.16;1721766;83;21347;-57
2022/12/14 10:25:29;;;;;;;32.78;22.35;;;;;;;0.76;82.39;101014.57;1889846;74;28748;-57
2022/12/14 10:28:59;;;;;;;24.72;17.65;;;;;;;0.76;82.31;101016.77;1844808;76;21373;-57
2022/12/14 10:32:58;;;;;;;28.55;18.90;;;;;;;0.85;82.19;101018.89;1836124;76;21181;-58
2022/12/14 10:36:47;;;;;;;26.97;17.40;;;;;;;0.87;81.98;101025.52;1843530;76;22132;-60
2022/12/14 10:40:32;;;;;;;27.42;17.48;;;;;;;0.90;82.02;101034.28;1779457;79;21241;-58
2022/12/14 10:44:23;;;;;;;28.77;16.87;;;;;;;0.96;82.06;101028.48;1843001;77;21256;-59
2022/12/14 10:47:52;;;;;;;26.75;15.90;;;;;;;0.97;82.00;101036.06;1858473;76;21196;-58
2022/12/14 10:51:14;;;;;;;27.48;16.80;;;;;;;0.96;81.96;101037.05;1786752;79;21196;-60
2022/12/14 10:54:55;;;;;;;26.25;15.95;;;;;;;0.96;81.95;101039.73;1851185;76;21323;-60
2022/12/14 10:58:10;;;;;;;32.13;18.23;;;;;;;1.04;82.01;101046.84;1833064;76;21857;-60
2022/12/14 11:01:23;;;;;;;26.95;17.48;;;;;;;1.05;81.88;101046.75;1847221;76;22029;-58
2022/12/14 11:05:11;;;;;;;39.88;25.15;;;;;;;1.07;81.82;101048.88;1817123;78;21188;-59
2022/12/14 11:08:51;;;;;;;31.80;17.35;;;;;;;1.08;81.73;101053.76;1843344;78;21378;-59
2022/12/14 11:12:25;;;;;;;34.53;18.82;;;;;;;1.07;81.78;101054.27;1756238;80;21678;-60
2022/12/14 11:15:56;;;;;;;28.45;17.27;;;;;;;1.10;81.73;101045.97;1843490;78;21436;-60
2022/12/14 11:19:54;;;;;;;26.55;16.45;;;;;;;1.21;81.92;101054.23;1737812;80;21220;-60
2022/12/14 11:23:24;;;;;;;28.38;17.55;;;;;;;1.21;81.66;101063.66;1840945;77;21887;-58
2022/12/14 11:26:48;;;;;;;30.70;18.15;;;;;;;1.13;81.61;101063.77;1738338;82;21756;-59
2022/12/14 11:34:19;;;;;;;29.65;18.90;;;;;;;1.18;81.62;101077.34;1754363;81;21371;-59
2022/12/14 11:37:37;;;;;;;30.72;18.55;;;;;;;1.12;81.61;101077.75;1735367;81;21256;-59
2022/12/14 11:40:48;;;;;;;30.97;18.35;;;;;;;1.17;81.68;101078.29;1761872;80;21700;-58
2022/12/14 11:44:46;;;;;;;30.25;18.37;;;;;;;1.17;81.57;101082.84;1747631;80;21191;-59
2022/12/14 11:48:23;;;;;;;28.45;18.10;;;;;;;1.14;81.66;101082.53;1809212;78;21478;-59
2022/12/14 11:52:19;;;;;;;30.87;18.60;;;;;;;1.18;81.61;101089.48;1792870;77;21212;-59
2022/12/14 11:55:34;;;;;;;43.15;27.05;;;;;;;1.16;81.49;101086.48;1752610;80;21585;-61
2022/12/14 11:58:58;;;;;;;31.17;19.00;;;;;;;1.13;81.34;101083.52;1791113;78;21200;-62
2022/12/14 12:03:06;;;;;;;26.52;18.02;;;;;;;1.10;81.35;101086.88;1805913;78;21478;-60
2022/12/14 12:06:19;;;;;;;29.50;18.32;;;;;;;1.09;81.33;101087.39;1711058;83;21371;-59
2022/12/14 12:09:40;;;;;;;29.35;18.17;;;;;;;0.99;81.28;101083.55;1695674;82;21223;-59
2022/12/14 12:13:12;;;;;;;25.80;17.23;;;;;;;0.91;81.33;101093.94;1657261;85;21667;-58
2022/12/14 12:16:28;;;;;;;30.37;17.82;;;;;;;0.84;81.38;101096.62;1675095;84;21203;-59
2022/12/14 12:19:42;;;;;;;32.38;19.62;;;;;;;0.84;81.53;101106.06;1627654;86;21262;-60
2022/12/14 12:22:58;;;;;;;33.92;20.12;;;;;;;0.78;81.44;101101.53;1664026;85;21314;-58
2022/12/14 12:26:38;;;;;;;43.48;24.77;;;;;;;0.69;81.38;101109.73;1653309;83;21266;-59
2022/12/14 12:30:01;;;;;;;41.45;23.75;;;;;;;0.58;81.33;101114.05;1684541;85;21385;-59
2022/12/14 12:33:29;;;;;;;55.43;30.77;;;;;;;0.46;81.21;101123.74;1678495;83;21437;-60
2022/12/14 12:36:48;;;;;;;78.73;41.57;;;;;;;0.39;81.25;101126.45;1692231;83;21412;-59
2022/12/14 12:40:46;;;;;;;78.67;41.80;;;;;;;0.42;81.31;101130.29;1671911;84;21442;-61
2022/12/14 12:48:04;;;;;;;43.92;26.17;;;;;;;1.06;81.23;101127.15;1675897;84;21201;-58
2022/12/14 12:55:44;;;;;;;34.92;22.93;;;;;;;1.15;81.08;101135.52;1737445;80;21256;-60
2022/12/14 12:59:07;;;;;;;32.73;23.30;;;;;;;1.18;80.94;101138.02;1746738;79;21250;-60
2022/12/14 13:02:43;;;;;;;37.67;22.80;;;;;;;1.13;80.81;101140.60;1775470;79;21200;-60
2022/12/14 13:05:59;;;;;;;33.92;20.32;;;;;;;1.05;80.78;101147.84;1782628;78;21225;-60
2022/12/14 13:09:47;;;;;;;37.78;20.97;;;;;;;0.96;80.74;101147.55;1772345;79;21250;-60
2022/12/14 13:13:11;;;;;;;58.70;33.67;;;;;;;0.79;80.64;101144.59;1761109;79;21214;-60
2022/12/14 13:16:34;;;;;;;33.13;20.85;;;;;;;0.59;80.53;101159.74;1776610;79;21261;-60
2022/12/14 13:20:53;;;;;;;34.43;22.07;;;;;;;0.39;80.52;101156.06;1775439;80;21258;-61
2022/12/14 13:24:25;;;;;;;40.80;26.45;;;;;;;0.17;80.50;101173.13;1774449;79;21254;-59
2022/12/14 13:28:28;;;;;;;52.88;31.33;;;;;;;-0.04;80.66;101177.06;1778396;80;21267;-60
2022/12/14 13:32:21;;;;;;;60.15;37.30;;;;;;;-0.18;80.71;101179.70;1759890;79;22133;-59
2022/12/14 13:36:40;;;;;;;67.42;37.73;;;;;;;-0.39;80.74;101189.86;1773873;79;21190;-60
2022/12/14 13:40:32;;;;;;;80.12;44.67;;;;;;;-0.61;80.72;101195.19;1772717;79;21625;-60
2022/12/14 13:44:27;;;;;;;87.25;44.58;;;;;;;-0.86;80.66;101201.53;1746356;80;21260;-60
2022/12/14 13:48:02;;;;;;;80.38;42.88;;;;;;;-1.04;80.71;101207.89;1767303;79;21931;-59
2022/12/14 13:51:30;;;;;;;80.75;41.50;;;;;;;-1.26;80.64;101210.87;1746897;81;21248;-62
2022/12/14 13:54:50;;;;;;;65.78;38.17;;;;;;;-1.48;80.46;101212.06;1743258;80;22043;-59
2022/12/14 13:58:22;;;;;;;61.37;34.45;;;;;;;-1.71;80.28;101223.52;1765944;81;21231;-60
2022/12/14 14:01:58;;;;;;;48.73;27.05;;;;;;;-1.92;80.16;101228.62;1763664;80;21801;-60
2022/12/14 14:05:32;;;;;;;37.73;21.55;;;;;;;-2.12;80.05;101231.43;1735445;80;21731;-60
2022/12/14 14:09:02;;;;;;;31.70;20.25;;;;;;;-2.28;80.12;101226.87;1752467;79;21256;-62
2022/12/14 14:12:42;;;;;;;34.83;19.65;;;;;;;-2.42;80.21;101227.56;1758542;80;21778;-59
2022/12/14 14:16:09;;;;;;;35.35;19.98;;;;;;;-2.53;80.29;101240.61;1687414;82;21209;-59
2022/12/14 14:19:37;;;;;;;32.65;19.57;;;;;;;-2.67;80.29;101236.38;1706443;82;21240;-59
2022/12/14 14:22:54;;;;;;;32.67;18.90;;;;;;;-2.77;80.36;101236.39;1777891;79;21619;-59
2022/12/14 14:26:26;;;;;;;36.83;20.90;;;;;;;-2.85;80.41;101239.89;1761981;80;21235;-58
2022/12/14 14:30:02;;;;;;;40.65;22.73;;;;;;;-2.93;80.45;101238.03;1763975;79;22137;-59
2022/12/14 14:33:59;;;;;;;35.85;21.90;;;;;;;-3.01;80.53;101238.00;1736716;82;22277;-59
2022/12/14 14:37:25;;;;;;;42.15;23.38;;;;;;;-3.09;80.60;101253.94;1754897;80;21207;-59
2022/12/14 14:40:41;;;;;;;41.53;23.40;;;;;;;-3.17;80.71;101250.73;1707289;81;21280;-59
2022/12/14 14:44:31;;;;;;;37.88;23.15;;;;;;;-3.23;80.78;101248.79;1706057;84;21265;-61
2022/12/14 14:47:48;;;;;;;37.75;22.07;;;;;;;-3.29;80.85;101255.76;1734465;81;21225;-59
2022/12/14 14:51:32;;;;;;;37.88;21.75;;;;;;;-3.34;80.98;101257.77;1723790;82;21737;-60
2022/12/14 14:54:44;;;;;;;38.92;23.12;;;;;;;-3.37;81.10;101253.89;1742312;80;22115;-61
2022/12/14 14:58:16;;;;;;;41.42;25.30;;;;;;;-3.40;81.16;101258.92;1757571;80;21199;-60
2022/12/14 15:01:34;;;;;;;44.05;24.67;;;;;;;-3.41;81.21;101254.97;1755731;81;21200;-59
2022/12/14 15:05:11;;;;;;;43.13;24.92;;;;;;;-3.45;81.21;101253.35;1749029;79;21243;-59
2022/12/14 15:08:47;;;;;;;34.75;21.12;;;;;;;-3.49;81.20;101246.41;1676164;83;21822;-59
2022/12/14 15:12:40;;;;;;;35.15;21.05;;;;;;;-3.53;81.17;101257.70;1726242;82;21273;-59
2022/12/14 15:15:53;;;;;;;37.03;21.20;;;;;;;-3.58;81.17;101261.04;1715645;82;21571;-59
2022/12/14 15:19:37;;;;;;;42.25;23.10;;;;;;;-3.61;81.17;101259.84;1718481;82;21268;-59
2022/12/14 15:22:50;;;;;;;41.05;21.30;;;;;;;-3.65;81.21;101267.61;1713819;81;21939;-59
2022/12/14 15:26:09;;;;;;;36.00;21.20;;;;;;;-3.68;81.23;101277.56;1712325;83;21835;-59
2022/12/14 15:29:31;;;;;;;44.55;23.73;;;;;;;-3.74;81.21;101276.48;1721900;83;21274;-59
2022/12/14 15:33:09;;;;;;;36.73;20.92;;;;;;;-3.76;81.23;101289.05;1732082;81;21237;-60
2022/12/14 15:36:25;;;;;;;36.45;21.25;;;;;;;-3.80;81.27;101300.33;1716800;82;21235;-59
2022/12/14 15:39:43;;;;;;;39.48;22.27;;;;;;;-3.83;81.26;101298.24;1721378;82;21241;-60
2022/12/14 15:43:00;;;;;;;46.20;26.12;;;;;;;-3.86;81.29;101308.61;1719529;82;21196;-59
2022/12/14 15:46:28;;;;;;;57.58;30.40;;;;;;;-3.89;81.23;101307.41;1709365;82;21229;-60
2022/12/14 15:49:37;;;;;;;60.73;32.48;;;;;;;-3.95;81.15;101313.01;1717233;82;21345;-59
2022/12/14 15:52:50;;;;;;;65.35;33.30;;;;;;;-3.98;81.15;101318.94;1748845;81;21177;-60
2022/12/14 15:56:05;;;;;;;59.48;33.10;;;;;;;-4.03;81.13;101327.61;1726809;80;21278;-60
2022/12/14 15:59:32;;;;;;;60.15;31.95;;;;;;;-4.07;81.09;101327.30;1764617;81;21253;-59
2022/12/14 16:02:43;;;;;;;67.97;38.40;;;;;;;-4.11;81.07;101325.70;1710262;82;21233;-59
2022/12/14 16:05:58;;;;;;;69.67;36.50;;;;;;;-4.12;81.13;101327.49;1749648;81;21248;-59
2022/12/14 16:09:16;;;;;;;58.85;31.97;;;;;;;-4.11;81.23;101333.27;1751982;80;21365;-60
2022/12/14 16:12:50;;;;;;;51.50;29.77;;;;;;;-4.07;81.27;101333.98;1745379;82;21362;-59
2022/12/14 16:15:59;;;;;;;48.90;29.98;;;;;;;-4.07;81.28;101339.34;1800505;79;21179;-60
2022/12/14 16:19:08;;;;;;;63.65;37.28;;;;;;;-4.05;81.25;101354.41;1782553;79;21920;-60
2022/12/14 16:22:31;;;;;;;88.22;47.73;;;;;;;-4.03;81.23;101346.32;1771852;80;21836;-59